logo
Search for airport 
image banner adimage banner adimage banner ad
image banner ad

FEFD - Damara

Located in , Central African Republic

ICAO - FEFD, IATA -

Data provided by Airmate  

General information

Coordinates: N4°57'0" E18°42'0"
Elevation is 1427 feet MSL.
 
View others Airports in Ombella-M'Poko

Operational data

Special qualification required
Current time UTC:
Current local time:
Weather at : FEFF - Bangui-M'poko ( 65 km )
METAR: FEFF 161900Z VRB02KT 5000 TS SCT010 FEW033CB 26/24 Q1013 TEMPO TSRA
View NOTAMs / SUP AIP / TFR affecting this airport [VIEW]
Communications frequencies: [VIEW]

Runways:

Airport contact information

Address: Central African Republic

Satellite view of FEFD